sensor_id;sensor_type;location;lat;lon;timestamp;P1;durP1;ratioP1;P2;durP2;ratioP2
40611;SDS011;26317;44.894;20.286;2022-11-20T00:00:17;12.60;;;11.40;;
40611;SDS011;26317;44.894;20.286;2022-11-20T00:02:46;11.68;;;10.57;;
40611;SDS011;26317;44.894;20.286;2022-11-20T00:05:17;12.65;;;11.23;;
40611;SDS011;26317;44.894;20.286;2022-11-20T00:07:47;12.77;;;11.48;;
40611;SDS011;26317;44.894;20.286;2022-11-20T00:10:19;11.35;;;10.27;;
40611;SDS011;26317;44.894;20.286;2022-11-20T00:12:48;11.95;;;10.85;;
40611;SDS011;26317;44.894;20.286;2022-11-20T00:15:18;11.85;;;10.75;;
40611;SDS011;26317;44.894;20.286;2022-11-20T00:17:47;12.23;;;11.10;;
40611;SDS011;26317;44.894;20.286;2022-11-20T00:20:16;11.00;;;10.00;;
40611;SDS011;26317;44.894;20.286;2022-11-20T00:22:46;11.88;;;10.73;;
40611;SDS011;26317;44.894;20.286;2022-11-20T00:25:16;11.57;;;10.48;;
40611;SDS011;26317;44.894;20.286;2022-11-20T00:27:48;12.27;;;11.07;;
40611;SDS011;26317;44.894;20.286;2022-11-20T00:30:20;11.50;;;10.48;;
40611;SDS011;26317;44.894;20.286;2022-11-20T00:32:50;12.25;;;11.05;;
40611;SDS011;26317;44.894;20.286;2022-11-20T00:35:19;12.13;;;10.93;;
40611;SDS011;26317;44.894;20.286;2022-11-20T00:37:48;12.48;;;11.18;;
40611;SDS011;26317;44.894;20.286;2022-11-20T00:40:19;13.95;;;11.18;;
40611;SDS011;26317;44.894;20.286;2022-11-20T00:42:48;11.35;;;10.23;;
40611;SDS011;26317;44.894;20.286;2022-11-20T00:45:18;12.40;;;11.23;;
40611;SDS011;26317;44.894;20.286;2022-11-20T00:47:47;11.02;;;9.95;;
40611;SDS011;26317;44.894;20.286;2022-11-20T00:50:16;13.02;;;10.98;;
40611;SDS011;26317;44.894;20.286;2022-11-20T00:52:47;12.50;;;11.20;;
40611;SDS011;26317;44.894;20.286;2022-11-20T00:55:16;13.43;;;12.13;;
40611;SDS011;26317;44.894;20.286;2022-11-20T00:57:47;12.57;;;11.48;;
40611;SDS011;26317;44.894;20.286;2022-11-20T01:00:16;13.70;;;12.30;;
40611;SDS011;26317;44.894;20.286;2022-11-20T01:02:45;14.65;;;13.20;;
40611;SDS011;26317;44.894;20.286;2022-11-20T01:05:15;15.30;;;13.73;;
40611;SDS011;26317;44.894;20.286;2022-11-20T01:07:44;15.90;;;14.32;;
40611;SDS011;26317;44.894;20.286;2022-11-20T01:10:13;16.02;;;14.52;;
40611;SDS011;26317;44.894;20.286;2022-11-20T01:12:43;16.92;;;15.23;;
40611;SDS011;26317;44.894;20.286;2022-11-20T01:15:35;18.52;;;16.63;;
40611;SDS011;26317;44.894;20.286;2022-11-20T01:18:05;14.98;;;13.57;;
40611;SDS011;26317;44.894;20.286;2022-11-20T01:20:34;13.82;;;12.55;;
40611;SDS011;26317;44.894;20.286;2022-11-20T01:23:03;12.75;;;11.55;;
40611;SDS011;26317;44.894;20.286;2022-11-20T01:25:33;12.70;;;11.43;;
40611;SDS011;26317;44.894;20.286;2022-11-20T01:28:03;9.87;;;8.97;;
40611;SDS011;26317;44.894;20.286;2022-11-20T01:30:32;9.88;;;8.95;;
40611;SDS011;26317;44.894;20.286;2022-11-20T01:33:10;10.25;;;9.35;;
40611;SDS011;26317;44.894;20.286;2022-11-20T01:35:39;10.77;;;8.43;;
40611;SDS011;26317;44.894;20.286;2022-11-20T01:38:08;10.98;;;9.65;;
40611;SDS011;26317;44.894;20.286;2022-11-20T01:40:37;12.05;;;10.95;;
40611;SDS011;26317;44.894;20.286;2022-11-20T01:43:09;14.93;;;13.52;;
40611;SDS011;26317;44.894;20.286;2022-11-20T01:45:57;15.23;;;13.82;;
40611;SDS011;26317;44.894;20.286;2022-11-20T01:48:31;15.73;;;14.02;;
40611;SDS011;26317;44.894;20.286;2022-11-20T01:51:05;16.40;;;14.70;;
40611;SDS011;26317;44.894;20.286;2022-11-20T01:53:39;15.55;;;14.13;;
40611;SDS011;26317;44.894;20.286;2022-11-20T01:56:09;16.42;;;14.82;;
40611;SDS011;26317;44.894;20.286;2022-11-20T01:58:41;15.73;;;14.25;;
40611;SDS011;26317;44.894;20.286;2022-11-20T02:01:14;16.35;;;14.75;;
40611;SDS011;26317;44.894;20.286;2022-11-20T02:03:46;17.60;;;15.82;;
40611;SDS011;26317;44.894;20.286;2022-11-20T02:06:17;16.67;;;15.07;;
40611;SDS011;26317;44.894;20.286;2022-11-20T02:08:51;15.45;;;13.93;;
40611;SDS011;26317;44.894;20.286;2022-11-20T02:11:21;16.58;;;15.05;;
40611;SDS011;26317;44.894;20.286;2022-11-20T02:13:50;16.27;;;14.68;;
40611;SDS011;26317;44.894;20.286;2022-11-20T02:16:19;15.93;;;14.40;;
40611;SDS011;26317;44.894;20.286;2022-11-20T02:18:54;15.50;;;14.20;;
40611;SDS011;26317;44.894;20.286;2022-11-20T02:21:27;18.35;;;16.73;;
40611;SDS011;26317;44.894;20.286;2022-11-20T02:24:13;18.83;;;17.02;;
40611;SDS011;26317;44.894;20.286;2022-11-20T02:26:46;22.23;;;20.08;;
40611;SDS011;26317;44.894;20.286;2022-11-20T02:29:19;23.15;;;20.85;;
40611;SDS011;26317;44.894;20.286;2022-11-20T02:31:55;26.42;;;23.65;;
40611;SDS011;26317;44.894;20.286;2022-11-20T02:34:26;25.83;;;23.20;;
40611;SDS011;26317;44.894;20.286;2022-11-20T02:36:56;27.67;;;24.98;;
40611;SDS011;26317;44.894;20.286;2022-11-20T02:39:28;29.92;;;25.75;;
40611;SDS011;26317;44.894;20.286;2022-11-20T02:41:57;27.95;;;24.98;;
40611;SDS011;26317;44.894;20.286;2022-11-20T02:44:27;28.92;;;26.02;;
40611;SDS011;26317;44.894;20.286;2022-11-20T02:46:58;28.95;;;25.95;;
40611;SDS011;26317;44.894;20.286;2022-11-20T02:49:27;30.13;;;27.15;;
40611;SDS011;26317;44.894;20.286;2022-11-20T02:51:56;29.25;;;26.42;;
40611;SDS011;26317;44.894;20.286;2022-11-20T02:54:28;31.98;;;28.80;;
40611;SDS011;26317;44.894;20.286;2022-11-20T02:56:58;33.08;;;29.67;;
40611;SDS011;26317;44.894;20.286;2022-11-20T02:59:26;29.20;;;26.33;;
40611;SDS011;26317;44.894;20.286;2022-11-20T03:01:55;30.52;;;26.80;;
40611;SDS011;26317;44.894;20.286;2022-11-20T03:04:24;27.02;;;24.42;;
40611;SDS011;26317;44.894;20.286;2022-11-20T03:06:53;29.05;;;25.88;;
40611;SDS011;26317;44.894;20.286;2022-11-20T03:09:22;28.27;;;25.48;;
40611;SDS011;26317;44.894;20.286;2022-11-20T03:11:54;30.83;;;27.63;;
40611;SDS011;26317;44.894;20.286;2022-11-20T03:14:23;30.92;;;27.80;;
40611;SDS011;26317;44.894;20.286;2022-11-20T03:16:53;32.40;;;28.98;;
40611;SDS011;26317;44.894;20.286;2022-11-20T03:19:21;31.58;;;28.17;;
40611;SDS011;26317;44.894;20.286;2022-11-20T03:21:51;31.30;;;28.10;;
40611;SDS011;26317;44.894;20.286;2022-11-20T03:24:20;32.05;;;28.83;;
40611;SDS011;26317;44.894;20.286;2022-11-20T03:26:49;31.42;;;28.33;;
40611;SDS011;26317;44.894;20.286;2022-11-20T03:29:20;32.40;;;29.15;;
40611;SDS011;26317;44.894;20.286;2022-11-20T03:31:49;31.02;;;27.90;;
40611;SDS011;26317;44.894;20.286;2022-11-20T03:34:18;31.90;;;28.50;;
40611;SDS011;26317;44.894;20.286;2022-11-20T03:36:47;27.88;;;25.08;;
40611;SDS011;26317;44.894;20.286;2022-11-20T03:39:18;26.30;;;23.65;;
40611;SDS011;26317;44.894;20.286;2022-11-20T03:41:47;25.27;;;22.67;;
40611;SDS011;26317;44.894;20.286;2022-11-20T03:44:16;24.05;;;21.55;;
40611;SDS011;26317;44.894;20.286;2022-11-20T03:46:50;25.63;;;22.60;;
40611;SDS011;26317;44.894;20.286;2022-11-20T03:49:20;23.70;;;21.13;;
40611;SDS011;26317;44.894;20.286;2022-11-20T03:51:49;23.65;;;21.25;;
40611;SDS011;26317;44.894;20.286;2022-11-20T03:54:18;29.55;;;23.17;;
40611;SDS011;26317;44.894;20.286;2022-11-20T03:56:47;28.73;;;23.90;;
40611;SDS011;26317;44.894;20.286;2022-11-20T03:59:16;25.73;;;23.17;;
40611;SDS011;26317;44.894;20.286;2022-11-20T04:01:48;25.70;;;23.15;;
40611;SDS011;26317;44.894;20.286;2022-11-20T04:04:17;28.30;;;25.10;;
40611;SDS011;26317;44.894;20.286;2022-11-20T04:06:46;31.02;;;27.85;;
40611;SDS011;26317;44.894;20.286;2022-11-20T04:09:15;29.73;;;26.35;;
40611;SDS011;26317;44.894;20.286;2022-11-20T04:11:44;32.97;;;29.13;;
40611;SDS011;26317;44.894;20.286;2022-11-20T04:14:14;30.00;;;26.77;;
40611;SDS011;26317;44.894;20.286;2022-11-20T04:16:44;32.40;;;27.70;;
40611;SDS011;26317;44.894;20.286;2022-11-20T04:19:16;28.52;;;25.45;;
40611;SDS011;26317;44.894;20.286;2022-11-20T04:21:45;29.58;;;25.60;;
40611;SDS011;26317;44.894;20.286;2022-11-20T04:24:13;28.73;;;25.63;;
40611;SDS011;26317;44.894;20.286;2022-11-20T04:26:42;27.05;;;24.27;;
40611;SDS011;26317;44.894;20.286;2022-11-20T04:29:11;27.58;;;24.77;;
40611;SDS011;26317;44.894;20.286;2022-11-20T04:31:40;25.80;;;23.20;;
40611;SDS011;26317;44.894;20.286;2022-11-20T04:34:10;26.55;;;23.88;;
40611;SDS011;26317;44.894;20.286;2022-11-20T04:36:43;26.17;;;23.52;;
40611;SDS011;26317;44.894;20.286;2022-11-20T04:39:12;26.17;;;23.50;;
40611;SDS011;26317;44.894;20.286;2022-11-20T04:41:43;26.20;;;23.38;;
40611;SDS011;26317;44.894;20.286;2022-11-20T04:44:11;26.35;;;23.50;;
40611;SDS011;26317;44.894;20.286;2022-11-20T04:46:41;27.92;;;25.02;;
40611;SDS011;26317;44.894;20.286;2022-11-20T04:49:10;28.08;;;25.08;;
40611;SDS011;26317;44.894;20.286;2022-11-20T04:51:39;28.20;;;25.23;;
40611;SDS011;26317;44.894;20.286;2022-11-20T04:54:11;26.13;;;22.70;;
40611;SDS011;26317;44.894;20.286;2022-11-20T04:56:41;26.42;;;23.73;;
40611;SDS011;26317;44.894;20.286;2022-11-20T04:59:11;28.05;;;25.02;;
40611;SDS011;26317;44.894;20.286;2022-11-20T05:01:40;27.48;;;24.50;;
40611;SDS011;26317;44.894;20.286;2022-11-20T05:04:10;27.95;;;24.23;;
40611;SDS011;26317;44.894;20.286;2022-11-20T05:06:40;26.23;;;23.52;;
40611;SDS011;26317;44.894;20.286;2022-11-20T05:09:11;25.42;;;22.58;;
40611;SDS011;26317;44.894;20.286;2022-11-20T05:11:40;26.10;;;23.42;;
40611;SDS011;26317;44.894;20.286;2022-11-20T05:14:09;26.17;;;23.27;;
40611;SDS011;26317;44.894;20.286;2022-11-20T05:16:38;27.63;;;23.48;;
40611;SDS011;26317;44.894;20.286;2022-11-20T05:19:07;25.35;;;22.65;;
40611;SDS011;26317;44.894;20.286;2022-11-20T05:21:37;26.25;;;23.48;;
40611;SDS011;26317;44.894;20.286;2022-11-20T05:24:09;26.45;;;23.33;;
40611;SDS011;26317;44.894;20.286;2022-11-20T05:26:38;27.60;;;23.25;;
40611;SDS011;26317;44.894;20.286;2022-11-20T05:29:09;24.70;;;20.90;;
40611;SDS011;26317;44.894;20.286;2022-11-20T05:31:39;25.15;;;21.98;;
40611;SDS011;26317;44.894;20.286;2022-11-20T05:34:09;28.05;;;23.48;;
40611;SDS011;26317;44.894;20.286;2022-11-20T05:36:38;23.90;;;21.15;;
40611;SDS011;26317;44.894;20.286;2022-11-20T05:39:09;25.27;;;21.27;;
40611;SDS011;26317;44.894;20.286;2022-11-20T05:41:38;25.55;;;22.25;;
40611;SDS011;26317;44.894;20.286;2022-11-20T05:44:10;24.27;;;21.50;;
40611;SDS011;26317;44.894;20.286;2022-11-20T05:46:39;26.25;;;21.80;;
40611;SDS011;26317;44.894;20.286;2022-11-20T05:49:09;28.30;;;22.45;;
40611;SDS011;26317;44.894;20.286;2022-11-20T05:51:38;31.52;;;23.65;;
40611;SDS011;26317;44.894;20.286;2022-11-20T05:54:10;27.60;;;22.08;;
40611;SDS011;26317;44.894;20.286;2022-11-20T05:56:38;27.33;;;22.55;;
40611;SDS011;26317;44.894;20.286;2022-11-20T05:59:07;27.75;;;23.83;;
40611;SDS011;26317;44.894;20.286;2022-11-20T06:01:36;27.67;;;23.98;;
40611;SDS011;26317;44.894;20.286;2022-11-20T06:04:06;27.38;;;22.75;;
40611;SDS011;26317;44.894;20.286;2022-11-20T06:06:35;27.08;;;23.88;;
40611;SDS011;26317;44.894;20.286;2022-11-20T06:09:04;27.50;;;22.65;;
40611;SDS011;26317;44.894;20.286;2022-11-20T06:11:35;30.40;;;23.35;;
40611;SDS011;26317;44.894;20.286;2022-11-20T06:14:04;25.73;;;22.02;;
40611;SDS011;26317;44.894;20.286;2022-11-20T06:16:34;31.30;;;22.73;;
40611;SDS011;26317;44.894;20.286;2022-11-20T06:19:03;26.75;;;23.77;;
40611;SDS011;26317;44.894;20.286;2022-11-20T06:21:32;28.25;;;23.45;;
40611;SDS011;26317;44.894;20.286;2022-11-20T06:24:01;24.77;;;22.05;;
40611;SDS011;26317;44.894;20.286;2022-11-20T06:26:30;31.95;;;24.05;;
40611;SDS011;26317;44.894;20.286;2022-11-20T06:29:02;29.63;;;23.95;;
40611;SDS011;26317;44.894;20.286;2022-11-20T06:31:31;27.35;;;23.83;;
40611;SDS011;26317;44.894;20.286;2022-11-20T06:34:02;29.67;;;23.60;;
40611;SDS011;26317;44.894;20.286;2022-11-20T06:36:32;30.70;;;25.63;;
40611;SDS011;26317;44.894;20.286;2022-11-20T06:39:01;24.15;;;21.33;;
40611;SDS011;26317;44.894;20.286;2022-11-20T06:41:30;26.10;;;23.40;;
40611;SDS011;26317;44.894;20.286;2022-11-20T06:44:03;27.02;;;20.67;;
40611;SDS011;26317;44.894;20.286;2022-11-20T06:46:32;23.90;;;19.73;;
40611;SDS011;26317;44.894;20.286;2022-11-20T06:49:01;21.55;;;16.58;;
40611;SDS011;26317;44.894;20.286;2022-11-20T06:51:31;16.92;;;14.68;;
40611;SDS011;26317;44.894;20.286;2022-11-20T06:54:00;18.08;;;16.17;;
40611;SDS011;26317;44.894;20.286;2022-11-20T06:56:30;20.23;;;15.77;;
40611;SDS011;26317;44.894;20.286;2022-11-20T06:59:06;17.60;;;13.63;;
40611;SDS011;26317;44.894;20.286;2022-11-20T07:01:35;15.68;;;14.02;;
40611;SDS011;26317;44.894;20.286;2022-11-20T07:04:04;18.52;;;14.68;;
40611;SDS011;26317;44.894;20.286;2022-11-20T07:06:33;18.92;;;15.98;;
40611;SDS011;26317;44.894;20.286;2022-11-20T07:09:02;18.45;;;16.60;;
40611;SDS011;26317;44.894;20.286;2022-11-20T07:11:31;19.95;;;17.77;;
40611;SDS011;26317;44.894;20.286;2022-11-20T07:14:00;19.90;;;17.80;;
40611;SDS011;26317;44.894;20.286;2022-11-20T07:16:32;19.63;;;17.63;;
40611;SDS011;26317;44.894;20.286;2022-11-20T07:19:01;20.85;;;18.20;;
40611;SDS011;26317;44.894;20.286;2022-11-20T07:21:30;17.75;;;15.32;;
40611;SDS011;26317;44.894;20.286;2022-11-20T07:24:00;16.58;;;14.23;;
40611;SDS011;26317;44.894;20.286;2022-11-20T07:26:29;19.05;;;17.05;;
40611;SDS011;26317;44.894;20.286;2022-11-20T07:28:58;19.95;;;17.40;;
40611;SDS011;26317;44.894;20.286;2022-11-20T07:31:27;23.17;;;20.67;;
40611;SDS011;26317;44.894;20.286;2022-11-20T07:33:58;23.85;;;21.35;;
40611;SDS011;26317;44.894;20.286;2022-11-20T07:36:29;23.83;;;21.25;;
40611;SDS011;26317;44.894;20.286;2022-11-20T07:38:58;27.30;;;23.45;;
40611;SDS011;26317;44.894;20.286;2022-11-20T07:41:27;26.98;;;22.08;;
40611;SDS011;26317;44.894;20.286;2022-11-20T07:43:57;27.15;;;22.70;;
40611;SDS011;26317;44.894;20.286;2022-11-20T07:46:26;28.92;;;24.25;;
40611;SDS011;26317;44.894;20.286;2022-11-20T07:48:57;28.65;;;22.83;;
40611;SDS011;26317;44.894;20.286;2022-11-20T07:51:26;24.83;;;20.90;;
40611;SDS011;26317;44.894;20.286;2022-11-20T07:53:55;27.20;;;21.25;;
40611;SDS011;26317;44.894;20.286;2022-11-20T07:56:24;23.38;;;20.08;;
40611;SDS011;26317;44.894;20.286;2022-11-20T07:58:53;25.40;;;21.95;;
40611;SDS011;26317;44.894;20.286;2022-11-20T08:01:22;28.05;;;21.23;;
40611;SDS011;26317;44.894;20.286;2022-11-20T08:03:52;25.80;;;21.45;;
40611;SDS011;26317;44.894;20.286;2022-11-20T08:06:23;26.15;;;21.38;;
40611;SDS011;26317;44.894;20.286;2022-11-20T08:08:53;27.98;;;22.38;;
40611;SDS011;26317;44.894;20.286;2022-11-20T08:11:21;26.58;;;22.38;;
40611;SDS011;26317;44.894;20.286;2022-11-20T08:14:02;25.65;;;22.42;;
40611;SDS011;26317;44.894;20.286;2022-11-20T08:16:47;24.42;;;21.80;;
40611;SDS011;26317;44.894;20.286;2022-11-20T08:19:18;30.88;;;22.70;;
40611;SDS011;26317;44.894;20.286;2022-11-20T08:21:50;28.23;;;21.10;;
40611;SDS011;26317;44.894;20.286;2022-11-20T08:24:19;28.27;;;22.38;;
40611;SDS011;26317;44.894;20.286;2022-11-20T08:26:47;26.27;;;21.05;;
40611;SDS011;26317;44.894;20.286;2022-11-20T08:29:17;29.33;;;23.17;;
40611;SDS011;26317;44.894;20.286;2022-11-20T08:31:48;26.98;;;23.60;;
40611;SDS011;26317;44.894;20.286;2022-11-20T08:34:17;26.23;;;21.85;;
40611;SDS011;26317;44.894;20.286;2022-11-20T08:36:48;31.77;;;26.10;;
40611;SDS011;26317;44.894;20.286;2022-11-20T08:39:20;32.50;;;26.33;;
40611;SDS011;26317;44.894;20.286;2022-11-20T08:41:49;35.83;;;30.00;;
40611;SDS011;26317;44.894;20.286;2022-11-20T08:44:19;41.53;;;33.38;;
40611;SDS011;26317;44.894;20.286;2022-11-20T08:46:48;32.35;;;28.85;;
40611;SDS011;26317;44.894;20.286;2022-11-20T08:49:17;34.10;;;28.80;;
40611;SDS011;26317;44.894;20.286;2022-11-20T08:51:46;34.33;;;29.13;;
40611;SDS011;26317;44.894;20.286;2022-11-20T08:54:21;33.05;;;27.80;;
40611;SDS011;26317;44.894;20.286;2022-11-20T08:56:50;32.58;;;25.88;;
40611;SDS011;26317;44.894;20.286;2022-11-20T08:59:19;31.52;;;26.55;;
40611;SDS011;26317;44.894;20.286;2022-11-20T09:01:48;35.78;;;29.50;;
40611;SDS011;26317;44.894;20.286;2022-11-20T09:04:17;36.70;;;29.02;;
40611;SDS011;26317;44.894;20.286;2022-11-20T09:06:46;41.00;;;29.83;;
40611;SDS011;26317;44.894;20.286;2022-11-20T09:09:16;38.70;;;29.80;;
40611;SDS011;26317;44.894;20.286;2022-11-20T09:11:49;33.93;;;27.60;;
40611;SDS011;26317;44.894;20.286;2022-11-20T09:14:18;35.65;;;26.50;;
40611;SDS011;26317;44.894;20.286;2022-11-20T09:16:50;35.30;;;29.60;;
40611;SDS011;26317;44.894;20.286;2022-11-20T09:19:19;34.47;;;29.17;;
40611;SDS011;26317;44.894;20.286;2022-11-20T09:21:48;40.35;;;31.65;;
40611;SDS011;26317;44.894;20.286;2022-11-20T09:24:17;42.72;;;35.15;;
40611;SDS011;26317;44.894;20.286;2022-11-20T09:26:49;40.80;;;32.63;;
40611;SDS011;26317;44.894;20.286;2022-11-20T09:29:19;36.95;;;30.50;;
40611;SDS011;26317;44.894;20.286;2022-11-20T09:31:48;38.00;;;30.10;;
40611;SDS011;26317;44.894;20.286;2022-11-20T09:34:18;46.80;;;34.75;;
40611;SDS011;26317;44.894;20.286;2022-11-20T09:36:47;36.83;;;30.52;;
40611;SDS011;26317;44.894;20.286;2022-11-20T09:39:16;33.50;;;26.83;;
40611;SDS011;26317;44.894;20.286;2022-11-20T09:41:51;33.45;;;27.52;;
40611;SDS011;26317;44.894;20.286;2022-11-20T09:44:31;35.67;;;28.75;;
40611;SDS011;26317;44.894;20.286;2022-11-20T09:47:16;27.80;;;24.80;;
40611;SDS011;26317;44.894;20.286;2022-11-20T09:49:59;24.40;;;20.92;;
40611;SDS011;26317;44.894;20.286;2022-11-20T09:52:49;33.58;;;28.40;;
40611;SDS011;26317;44.894;20.286;2022-11-20T09:55:33;36.67;;;29.15;;
40611;SDS011;26317;44.894;20.286;2022-11-20T09:58:12;30.80;;;26.58;;
40611;SDS011;26317;44.894;20.286;2022-11-20T10:00:44;28.13;;;23.42;;
40611;SDS011;26317;44.894;20.286;2022-11-20T10:03:16;22.70;;;20.38;;
40611;SDS011;26317;44.894;20.286;2022-11-20T10:05:54;23.65;;;21.15;;
40611;SDS011;26317;44.894;20.286;2022-11-20T10:08:25;25.65;;;22.52;;
40611;SDS011;26317;44.894;20.286;2022-11-20T10:11:01;22.10;;;19.73;;
40611;SDS011;26317;44.894;20.286;2022-11-20T10:13:43;22.50;;;20.20;;
40611;SDS011;26317;44.894;20.286;2022-11-20T10:16:22;25.40;;;21.60;;
40611;SDS011;26317;44.894;20.286;2022-11-20T10:19:02;22.40;;;19.98;;
40611;SDS011;26317;44.894;20.286;2022-11-20T10:21:52;21.48;;;18.85;;
40611;SDS011;26317;44.894;20.286;2022-11-20T10:24:34;24.77;;;20.27;;
40611;SDS011;26317;44.894;20.286;2022-11-20T10:27:21;22.75;;;20.10;;
40611;SDS011;26317;44.894;20.286;2022-11-20T10:30:10;26.63;;;23.20;;
40611;SDS011;26317;44.894;20.286;2022-11-20T10:32:42;22.40;;;20.05;;
40611;SDS011;26317;44.894;20.286;2022-11-20T10:35:20;24.10;;;21.17;;
40611;SDS011;26317;44.894;20.286;2022-11-20T10:37:54;29.42;;;23.08;;
40611;SDS011;26317;44.894;20.286;2022-11-20T10:40:28;31.30;;;26.00;;
40611;SDS011;26317;44.894;20.286;2022-11-20T10:43:06;26.58;;;23.77;;
40611;SDS011;26317;44.894;20.286;2022-11-20T10:45:56;26.35;;;22.33;;
40611;SDS011;26317;44.894;20.286;2022-11-20T10:48:27;29.73;;;25.88;;
40611;SDS011;26317;44.894;20.286;2022-11-20T10:51:05;30.45;;;25.45;;
40611;SDS011;26317;44.894;20.286;2022-11-20T10:53:44;31.73;;;27.02;;
40611;SDS011;26317;44.894;20.286;2022-11-20T10:56:20;30.67;;;26.25;;
40611;SDS011;26317;44.894;20.286;2022-11-20T10:58:58;30.25;;;25.13;;
40611;SDS011;26317;44.894;20.286;2022-11-20T11:01:39;30.20;;;24.55;;
40611;SDS011;26317;44.894;20.286;2022-11-20T11:04:14;25.80;;;22.25;;
40611;SDS011;26317;44.894;20.286;2022-11-20T11:06:55;38.78;;;34.60;;
40611;SDS011;26317;44.894;20.286;2022-11-20T11:09:34;27.80;;;23.85;;
40611;SDS011;26317;44.894;20.286;2022-11-20T11:12:07;29.52;;;23.33;;
40611;SDS011;26317;44.894;20.286;2022-11-20T11:14:45;27.60;;;24.67;;
40611;SDS011;26317;44.894;20.286;2022-11-20T11:17:24;30.30;;;24.83;;
40611;SDS011;26317;44.894;20.286;2022-11-20T11:19:59;38.88;;;33.97;;
40611;SDS011;26317;44.894;20.286;2022-11-20T11:22:30;29.17;;;26.00;;
40611;SDS011;26317;44.894;20.286;2022-11-20T11:25:01;35.05;;;27.13;;
40611;SDS011;26317;44.894;20.286;2022-11-20T11:27:31;28.70;;;25.20;;
40611;SDS011;26317;44.894;20.286;2022-11-20T11:30:02;27.27;;;22.95;;
40611;SDS011;26317;44.894;20.286;2022-11-20T11:32:42;30.10;;;23.83;;
40611;SDS011;26317;44.894;20.286;2022-11-20T11:35:21;25.60;;;22.83;;
40611;SDS011;26317;44.894;20.286;2022-11-20T11:37:52;34.45;;;26.70;;
40611;SDS011;26317;44.894;20.286;2022-11-20T11:40:30;29.48;;;25.38;;
40611;SDS011;26317;44.894;20.286;2022-11-20T11:43:01;71.35;;;63.60;;
40611;SDS011;26317;44.894;20.286;2022-11-20T11:45:54;58.33;;;46.50;;
40611;SDS011;26317;44.894;20.286;2022-11-20T11:48:24;36.58;;;29.38;;
40611;SDS011;26317;44.894;20.286;2022-11-20T11:50:52;34.50;;;29.23;;
40611;SDS011;26317;44.894;20.286;2022-11-20T11:53:21;33.70;;;28.10;;
40611;SDS011;26317;44.894;20.286;2022-11-20T11:55:54;35.83;;;29.35;;
40611;SDS011;26317;44.894;20.286;2022-11-20T11:58:41;46.13;;;37.13;;
40611;SDS011;26317;44.894;20.286;2022-11-20T12:01:19;33.72;;;28.92;;
40611;SDS011;26317;44.894;20.286;2022-11-20T12:04:02;33.10;;;29.50;;
40611;SDS011;26317;44.894;20.286;2022-11-20T12:06:34;36.05;;;28.55;;
40611;SDS011;26317;44.894;20.286;2022-11-20T12:09:08;34.15;;;29.25;;
40611;SDS011;26317;44.894;20.286;2022-11-20T12:11:38;47.85;;;32.13;;
40611;SDS011;26317;44.894;20.286;2022-11-20T12:14:16;40.60;;;34.20;;
40611;SDS011;26317;44.894;20.286;2022-11-20T12:16:49;42.08;;;33.17;;
40611;SDS011;26317;44.894;20.286;2022-11-20T12:19:26;40.85;;;31.67;;
40611;SDS011;26317;44.894;20.286;2022-11-20T12:22:01;45.95;;;36.53;;
40611;SDS011;26317;44.894;20.286;2022-11-20T12:24:42;42.10;;;35.75;;
40611;SDS011;26317;44.894;20.286;2022-11-20T12:27:35;38.03;;;32.95;;
40611;SDS011;26317;44.894;20.286;2022-11-20T12:30:11;36.95;;;28.85;;
40611;SDS011;26317;44.894;20.286;2022-11-20T12:32:49;86.55;;;72.13;;
40611;SDS011;26317;44.894;20.286;2022-11-20T12:35:35;34.28;;;30.15;;
40611;SDS011;26317;44.894;20.286;2022-11-20T12:38:36;36.58;;;30.40;;
40611;SDS011;26317;44.894;20.286;2022-11-20T12:41:15;40.85;;;33.90;;
40611;SDS011;26317;44.894;20.286;2022-11-20T12:44:07;44.53;;;34.08;;
40611;SDS011;26317;44.894;20.286;2022-11-20T12:46:59;39.38;;;32.03;;
40611;SDS011;26317;44.894;20.286;2022-11-20T12:49:41;40.75;;;32.17;;
40611;SDS011;26317;44.894;20.286;2022-11-20T12:52:24;39.93;;;33.00;;
40611;SDS011;26317;44.894;20.286;2022-11-20T12:55:11;43.42;;;32.28;;
40611;SDS011;26317;44.894;20.286;2022-11-20T12:57:53;39.08;;;32.60;;
40611;SDS011;26317;44.894;20.286;2022-11-20T13:00:26;45.35;;;33.92;;
40611;SDS011;26317;44.894;20.286;2022-11-20T13:03:03;44.15;;;34.33;;
40611;SDS011;26317;44.894;20.286;2022-11-20T13:05:51;46.35;;;36.60;;
40611;SDS011;26317;44.894;20.286;2022-11-20T13:08:29;45.88;;;35.75;;
40611;SDS011;26317;44.894;20.286;2022-11-20T13:11:04;34.55;;;29.27;;
40611;SDS011;26317;44.894;20.286;2022-11-20T13:13:43;38.85;;;32.40;;
40611;SDS011;26317;44.894;20.286;2022-11-20T13:16:23;43.30;;;33.20;;
40611;SDS011;26317;44.894;20.286;2022-11-20T13:19:01;43.00;;;34.17;;
40611;SDS011;26317;44.894;20.286;2022-11-20T13:21:35;46.80;;;34.23;;
40611;SDS011;26317;44.894;20.286;2022-11-20T13:24:20;40.22;;;32.03;;
40611;SDS011;26317;44.894;20.286;2022-11-20T13:27:02;44.05;;;32.05;;
40611;SDS011;26317;44.894;20.286;2022-11-20T13:29:33;42.78;;;33.58;;
40611;SDS011;26317;44.894;20.286;2022-11-20T13:32:05;44.00;;;34.42;;
40611;SDS011;26317;44.894;20.286;2022-11-20T13:34:50;42.15;;;33.95;;
40611;SDS011;26317;44.894;20.286;2022-11-20T13:37:24;36.80;;;30.00;;
40611;SDS011;26317;44.894;20.286;2022-11-20T13:40:19;36.72;;;30.20;;
40611;SDS011;26317;44.894;20.286;2022-11-20T13:42:54;34.78;;;29.83;;
40611;SDS011;26317;44.894;20.286;2022-11-20T13:45:25;37.85;;;31.85;;
40611;SDS011;26317;44.894;20.286;2022-11-20T13:47:56;39.35;;;31.77;;
40611;SDS011;26317;44.894;20.286;2022-11-20T13:53:09;43.75;;;35.53;;
40611;SDS011;26317;44.894;20.286;2022-11-20T13:55:58;40.45;;;34.38;;
40611;SDS011;26317;44.894;20.286;2022-11-20T13:58:35;44.15;;;33.10;;
40611;SDS011;26317;44.894;20.286;2022-11-20T14:01:15;37.35;;;32.03;;
40611;SDS011;26317;44.894;20.286;2022-11-20T14:03:46;43.13;;;35.55;;
40611;SDS011;26317;44.894;20.286;2022-11-20T14:06:21;49.22;;;37.50;;
40611;SDS011;26317;44.894;20.286;2022-11-20T14:08:56;51.17;;;37.92;;
40611;SDS011;26317;44.894;20.286;2022-11-20T14:11:30;45.13;;;34.45;;
40611;SDS011;26317;44.894;20.286;2022-11-20T14:14:00;46.63;;;35.92;;
40611;SDS011;26317;44.894;20.286;2022-11-20T14:16:30;46.42;;;35.58;;
40611;SDS011;26317;44.894;20.286;2022-11-20T14:22:06;40.45;;;32.70;;
40611;SDS011;26317;44.894;20.286;2022-11-20T14:24:38;45.47;;;36.03;;
40611;SDS011;26317;44.894;20.286;2022-11-20T14:27:14;40.58;;;33.10;;
40611;SDS011;26317;44.894;20.286;2022-11-20T14:29:45;39.92;;;31.90;;
40611;SDS011;26317;44.894;20.286;2022-11-20T14:32:17;34.10;;;27.85;;
40611;SDS011;26317;44.894;20.286;2022-11-20T14:34:48;32.00;;;26.95;;
40611;SDS011;26317;44.894;20.286;2022-11-20T14:37:19;35.22;;;29.52;;
40611;SDS011;26317;44.894;20.286;2022-11-20T14:39:52;34.88;;;30.83;;
40611;SDS011;26317;44.894;20.286;2022-11-20T14:42:27;35.33;;;30.85;;
40611;SDS011;26317;44.894;20.286;2022-11-20T14:44:57;35.92;;;30.52;;